Terminal Aerodrome Forecast
Issued by NWS Twin Cities, MN

Home | Current Version | Previous Version | Text Only | Print | Product List | Glossary Off
Versions: 1 2 3 4 5 6 7 8 9 10 11 12 13 14 15 16 17 18 19 20 21 22 23 24 25 26

000
FTUS43 KMPX 131700
TAFMSP
TAF
KMSP 131722Z 1318/1424 28011G20KT P6SM SCT050
     FM140200 31008KT P6SM SCT050
     FM141400 31012KT P6SM BKN050
     FM141700 31016G24KT P6SM VCSH BKN040=

USA.gov is the U.S. government's official web portal to all federal, state and local government web resources and services.